EKRK

Copenhagen Roskilde Airport

Copenhagen, Denmark
METAR EKRK 241150Z AUTO 09010KT 9999NDV NCD M01/M10 Q1035 R99/710295
Observed Flight Rules
Feb-24 @ 11:50 UTC (34 minutes ago) Instrument Flight Rules
Wind Visibility Clouds
90° at 10 knots 290 meters
  • Clear skies
Temperatures Readings
Current -1°C / 30°F
Dewpoint -10°C / 14°F
Humidity 51%
Altimeter 30.56" Hg
Pressure 1035 hPa
Elevation 44
METAR EKRK 241150Z AUTO 09010KT 9999NDV NCD M01/M10 Q1035 R99/710295
Observed Flight Rules
Feb-24 @ 11:50 UTC
(34 minutes ago)
LIFR
Wind Visibility
90° at 10 knots 290 meters
Clouds
  • Clear skies
Temperature Dewpoint
-1°C / 30°F -10°C / 14°F
Humidity Altimeter Pressure
51% 30.56" Hg 1035 hPa